Time;durP1;ratioP1;P1;durP2;ratioP2;P2;SDS_P1;SDS_P2;PMS_P1;PMS_P2;Temp;Humidity;BMP_temperature;BMP_pressure;BME280_temperature;BME280_humidity;BME280_pressure;Samples;Min_cycle;Max_cycle;Signal;HPM_P1;HPM_P2
2021/05/01 00:00:44;;;;;;;37.63;22.77;;;7.20;99.90;;;;;;4454251;32;20189;-73
2021/05/01 00:03:10;;;;;;;38.30;22.83;;;7.10;99.90;;;;;;4454662;32;20202;-73
2021/05/01 00:05:37;;;;;;;36.53;21.90;;;7.00;99.90;;;;;;4455104;32;20207;-73
2021/05/01 00:08:03;;;;;;;39.67;22.57;;;7.00;99.90;;;;;;4453703;32;20433;-73
2021/05/01 00:10:31;;;;;;;36.77;21.57;;;7.00;99.90;;;;;;4453923;32;20151;-73
2021/05/01 00:12:57;;;;;;;40.90;22.73;;;7.00;99.90;;;;;;4455155;32;20196;-73
2021/05/01 00:15:24;;;;;;;37.83;22.43;;;7.00;99.90;;;;;;4455065;32;20147;-73
2021/05/01 00:17:50;;;;;;;37.07;22.03;;;7.00;99.90;;;;;;4456894;32;20225;-73
2021/05/01 00:20:17;;;;;;;40.00;22.53;;;7.00;99.90;;;;;;4455292;32;20206;-72
2021/05/01 00:22:43;;;;;;;38.07;22.43;;;6.90;99.90;;;;;;4456829;32;20197;-71
2021/05/01 00:25:10;;;;;;;38.00;22.27;;;6.90;99.90;;;;;;4455676;32;20199;-73
2021/05/01 00:27:36;;;;;;;36.17;22.00;;;6.90;99.90;;;;;;4455349;32;20164;-73
2021/05/01 00:30:05;;;;;;;39.07;22.27;;;6.80;99.90;;;;;;4455133;32;20218;-73
2021/05/01 00:32:33;;;;;;;41.03;23.00;;;6.80;99.90;;;;;;4456806;32;20194;-73
2021/05/01 00:35:01;;;;;;;38.90;22.63;;;6.80;99.90;;;;;;4456696;32;20206;-73
2021/05/01 00:37:27;;;;;;;41.10;23.60;;;6.80;99.90;;;;;;4455339;32;20226;-73
2021/05/01 00:39:53;;;;;;;40.57;23.47;;;6.80;99.90;;;;;;4455100;32;20165;-73
2021/05/01 00:42:20;;;;;;;41.30;23.90;;;6.70;99.90;;;;;;4455198;32;20138;-72
2021/05/01 00:44:47;;;;;;;39.83;24.27;;;6.70;99.90;;;;;;4456702;32;20197;-73
2021/05/01 00:47:13;;;;;;;42.13;23.93;;;6.70;99.90;;;;;;4455518;32;20176;-73
2021/05/01 00:49:41;;;;;;;40.13;23.70;;;6.60;99.90;;;;;;4455169;32;20171;-73
2021/05/01 00:52:07;;;;;;;41.97;23.80;;;6.70;99.90;;;;;;4454969;32;20210;-73
2021/05/01 00:54:34;;;;;;;46.13;24.20;;;6.70;99.90;;;;;;4456652;32;20146;-73
2021/05/01 00:57:00;;;;;;;42.37;24.10;;;6.80;99.90;;;;;;4455062;32;20197;-73
2021/05/01 00:59:27;;;;;;;42.03;23.77;;;6.80;99.90;;;;;;4456440;32;20185;-73
2021/05/01 01:01:55;;;;;;;43.60;24.07;;;6.80;99.90;;;;;;4456446;32;20176;-72
2021/05/01 01:04:21;;;;;;;41.43;24.10;;;6.80;99.90;;;;;;4455907;32;20159;-72
2021/05/01 01:06:48;;;;;;;43.67;23.93;;;6.90;99.90;;;;;;4454986;32;20197;-72
2021/05/01 01:09:14;;;;;;;41.40;24.10;;;6.90;99.90;;;;;;4454940;32;20146;-73
2021/05/01 01:11:42;;;;;;;40.83;24.63;;;6.90;99.90;;;;;;4454930;32;20483;-73
2021/05/01 01:14:12;;;;;;;43.90;25.33;;;7.00;99.90;;;;;;4455457;32;20138;-73
2021/05/01 01:16:40;;;;;;;42.83;24.23;;;7.00;99.90;;;;;;4456405;32;20149;-73
2021/05/01 01:19:08;;;;;;;45.13;24.70;;;7.10;99.90;;;;;;4456423;32;20141;-72
2021/05/01 01:21:46;;;;;;;40.43;23.73;;;7.00;99.90;;;;;;4455686;32;20161;-73
2021/05/01 01:24:13;;;;;;;45.03;24.77;;;7.10;99.90;;;;;;4456437;32;20192;-73
2021/05/01 01:26:41;;;;;;;40.27;24.77;;;7.20;99.90;;;;;;4456378;32;20146;-73
2021/05/01 01:29:12;;;;;;;41.77;23.73;;;7.20;99.90;;;;;;4455778;32;20177;-73
2021/05/01 01:31:40;;;;;;;43.23;24.63;;;7.10;99.90;;;;;;4456345;32;20146;-73
2021/05/01 01:34:06;;;;;;;40.63;23.13;;;7.20;99.90;;;;;;4455543;32;20483;-73
2021/05/01 01:36:33;;;;;;;43.17;23.27;;;7.30;99.90;;;;;;4454338;32;20544;-73
2021/05/01 01:38:59;;;;;;;41.83;23.93;;;7.30;99.90;;;;;;4457505;32;20199;-73
2021/05/01 01:41:27;;;;;;;41.87;24.23;;;7.30;99.90;;;;;;4456939;32;20405;-73
2021/05/01 01:43:54;;;;;;;40.47;24.63;;;7.30;99.90;;;;;;4457844;32;20187;-73
2021/05/01 01:46:20;;;;;;;41.67;24.57;;;7.40;99.90;;;;;;4457619;32;20199;-73
2021/05/01 01:48:46;;;;;;;42.97;24.40;;;7.40;99.90;;;;;;4458589;32;20356;-73
2021/05/01 01:51:13;;;;;;;41.90;24.57;;;7.40;99.90;;;;;;4457505;32;20190;-72
2021/05/01 01:53:39;;;;;;;41.20;24.07;;;7.40;99.90;;;;;;4457364;32;20223;-73
2021/05/01 01:56:05;;;;;;;41.80;23.57;;;7.40;99.90;;;;;;4459059;32;20405;-72
2021/05/01 01:58:32;;;;;;;41.90;24.23;;;7.40;99.90;;;;;;4456963;32;20169;-73
2021/05/01 02:00:59;;;;;;;44.50;24.07;;;7.40;99.90;;;;;;4457429;32;20175;-73
2021/05/01 02:03:25;;;;;;;43.60;24.10;;;7.40;99.90;;;;;;4457365;32;20437;-72
2021/05/01 02:05:52;;;;;;;44.93;24.17;;;7.60;99.90;;;;;;4458891;32;20160;-73
2021/05/01 02:08:18;;;;;;;42.90;23.93;;;7.60;99.90;;;;;;4458890;32;20214;-72
2021/05/01 02:10:44;;;;;;;43.27;24.43;;;7.70;99.90;;;;;;4458531;32;20149;-72
2021/05/01 02:13:11;;;;;;;41.93;24.67;;;7.70;99.90;;;;;;4457985;32;20399;-72
2021/05/01 02:15:37;;;;;;;43.07;23.33;;;7.80;99.90;;;;;;4458642;32;20177;-73
2021/05/01 02:18:04;;;;;;;43.57;23.50;;;7.80;99.90;;;;;;4457356;32;20134;-73
2021/05/01 02:20:34;;;;;;;41.07;23.17;;;7.80;99.90;;;;;;4458605;32;20200;-72
2021/05/01 02:23:03;;;;;;;43.00;23.23;;;7.80;99.90;;;;;;4458680;32;20158;-73
2021/05/01 02:25:30;;;;;;;44.73;23.80;;;7.80;99.90;;;;;;4458596;32;20449;-73
2021/05/01 02:27:56;;;;;;;42.90;23.83;;;7.80;99.90;;;;;;4458584;32;20411;-72
2021/05/01 02:30:25;;;;;;;39.43;23.00;;;7.90;99.90;;;;;;4457445;32;20202;-72
2021/05/01 02:32:53;;;;;;;41.73;23.63;;;7.90;99.90;;;;;;4456924;32;20424;-72
2021/05/01 02:35:27;;;;;;;39.90;23.23;;;7.90;99.90;;;;;;4456886;32;20177;-72
2021/05/01 02:37:54;;;;;;;38.57;23.20;;;7.90;99.90;;;;;;4458415;32;20467;-72
2021/05/01 02:40:22;;;;;;;40.20;22.97;;;7.90;99.90;;;;;;4457471;32;20150;-72
2021/05/01 02:42:49;;;;;;;39.20;22.73;;;7.90;99.90;;;;;;4458342;32;20485;-72
2021/05/01 02:45:18;;;;;;;40.90;22.47;;;7.90;99.90;;;;;;4458331;32;20138;-72
2021/05/01 02:47:45;;;;;;;37.37;22.43;;;7.90;99.90;;;;;;4458153;32;20142;-72
2021/05/01 02:50:13;;;;;;;36.33;22.20;;;8.00;99.90;;;;;;4456717;32;20146;-72
2021/05/01 02:52:39;;;;;;;37.43;22.37;;;8.00;99.90;;;;;;4456711;32;20166;-73
2021/05/01 02:55:07;;;;;;;36.83;21.83;;;8.00;99.90;;;;;;4458142;32;20168;-73
2021/05/01 02:57:33;;;;;;;35.50;22.00;;;8.10;99.90;;;;;;4442709;32;20173;-72
2021/05/01 03:00:03;;;;;;;36.03;21.93;;;8.10;99.90;;;;;;4458000;32;20134;-73
2021/05/01 03:02:31;;;;;;;37.03;21.70;;;8.20;99.90;;;;;;4457309;32;20142;-72
2021/05/01 03:04:58;;;;;;;38.77;22.27;;;8.10;99.90;;;;;;4456552;32;20455;-72
2021/05/01 03:07:25;;;;;;;36.17;21.37;;;8.10;99.90;;;;;;4457211;32;20355;-72
2021/05/01 03:09:53;;;;;;;34.37;20.77;;;8.10;99.90;;;;;;4456313;32;20380;-72
2021/05/01 03:12:19;;;;;;;35.97;20.93;;;8.10;99.90;;;;;;4457470;32;20134;-72
2021/05/01 03:14:46;;;;;;;36.07;21.10;;;8.10;99.90;;;;;;4455847;32;20138;-72
2021/05/01 03:17:13;;;;;;;34.60;21.47;;;8.20;99.90;;;;;;4458102;32;20166;-72
2021/05/01 03:19:41;;;;;;;33.83;21.10;;;8.30;99.90;;;;;;4455843;32;20441;-72
2021/05/01 03:22:08;;;;;;;36.73;21.23;;;8.30;99.90;;;;;;4456173;32;20527;-72
2021/05/01 03:24:35;;;;;;;35.53;21.37;;;8.20;99.90;;;;;;4456281;32;20166;-72
2021/05/01 03:27:02;;;;;;;32.07;20.03;;;8.30;99.90;;;;;;4457718;32;20158;-72
2021/05/01 03:29:29;;;;;;;36.03;20.83;;;8.30;99.90;;;;;;4456755;32;20170;-72
2021/05/01 03:31:55;;;;;;;36.53;20.97;;;8.30;99.90;;;;;;4457873;32;20158;-72
2021/05/01 03:34:22;;;;;;;38.17;21.93;;;8.30;99.90;;;;;;4457110;32;20193;-73
2021/05/01 03:36:48;;;;;;;39.13;21.13;;;8.30;99.90;;;;;;4455584;32;20443;-73
2021/05/01 03:39:16;;;;;;;34.57;20.17;;;8.30;99.90;;;;;;4456299;32;20185;-73
2021/05/01 03:41:43;;;;;;;36.77;21.03;;;8.40;99.90;;;;;;4457514;32;20420;-73
2021/05/01 03:44:10;;;;;;;35.93;20.93;;;8.40;99.90;;;;;;4457424;32;20146;-72
2021/05/01 03:46:36;;;;;;;36.83;21.03;;;8.50;99.90;;;;;;4455912;32;20233;-73
2021/05/01 03:49:03;;;;;;;36.57;20.50;;;8.50;99.90;;;;;;4455988;32;20206;-72
2021/05/01 03:51:29;;;;;;;35.90;21.00;;;8.50;99.90;;;;;;4455949;32;20169;-73
2021/05/01 03:53:56;;;;;;;35.50;20.47;;;8.40;99.90;;;;;;4455705;32;20154;-73
2021/05/01 03:56:22;;;;;;;32.03;19.23;;;8.40;99.90;;;;;;4456407;32;20444;-73
2021/05/01 03:58:49;;;;;;;33.23;20.10;;;8.40;99.90;;;;;;4456111;32;20141;-72
2021/05/01 04:01:16;;;;;;;31.93;20.33;;;8.40;99.90;;;;;;4455965;32;20479;-73
2021/05/01 04:03:42;;;;;;;35.07;20.47;;;8.50;99.90;;;;;;4457247;32;20162;-73
2021/05/01 04:06:08;;;;;;;37.20;21.17;;;8.50;99.90;;;;;;4457228;32;20382;-72
2021/05/01 04:08:37;;;;;;;34.57;21.07;;;8.50;99.90;;;;;;4457173;32;20169;-72
2021/05/01 04:11:04;;;;;;;35.10;21.23;;;8.50;99.90;;;;;;4455605;32;20181;-72
2021/05/01 04:13:32;;;;;;;37.63;21.47;;;8.40;99.90;;;;;;4456034;32;20383;-72
2021/05/01 04:15:59;;;;;;;36.83;21.97;;;8.40;99.90;;;;;;4455613;32;20479;-73
2021/05/01 04:18:25;;;;;;;37.00;21.00;;;8.50;99.90;;;;;;4456254;32;20153;-73
2021/05/01 04:20:51;;;;;;;33.40;19.50;;;8.50;99.90;;;;;;4457239;32;20154;-73
2021/05/01 04:23:18;;;;;;;32.07;19.77;;;8.60;99.90;;;;;;4455563;32;20219;-73
2021/05/01 04:25:44;;;;;;;32.93;19.23;;;8.50;99.90;;;;;;4455467;32;20146;-73
2021/05/01 04:28:11;;;;;;;32.30;19.40;;;8.60;99.90;;;;;;4455479;32;20168;-74
2021/05/01 04:30:37;;;;;;;33.40;19.13;;;8.60;99.90;;;;;;4456962;32;20215;-74
2021/05/01 04:33:04;;;;;;;31.07;18.60;;;8.60;99.90;;;;;;4455520;32;20164;-72
2021/05/01 04:35:30;;;;;;;32.70;19.47;;;8.60;99.90;;;;;;4455319;32;20142;-72
2021/05/01 04:37:57;;;;;;;33.63;19.47;;;8.60;99.90;;;;;;4454656;32;20150;-72
2021/05/01 04:40:23;;;;;;;33.03;19.57;;;8.60;99.90;;;;;;4455714;32;20185;-72
2021/05/01 04:42:52;;;;;;;33.17;18.93;;;8.60;99.90;;;;;;4455210;32;20528;-72
2021/05/01 04:45:19;;;;;;;30.03;18.33;;;8.60;99.90;;;;;;4455250;32;20138;-72
2021/05/01 04:47:46;;;;;;;30.20;18.73;;;8.60;99.90;;;;;;4456679;32;20460;-72
2021/05/01 04:50:14;;;;;;;30.57;18.97;;;8.50;99.90;;;;;;4455181;32;20185;-72
2021/05/01 04:52:41;;;;;;;32.07;18.90;;;8.60;99.90;;;;;;4454976;32;20154;-73
2021/05/01 04:55:14;;;;;;;32.10;19.13;;;8.60;99.90;;;;;;4456649;32;20189;-72
2021/05/01 04:57:42;;;;;;;30.23;18.57;;;8.60;99.90;;;;;;4455692;32;20334;-72
2021/05/01 05:00:10;;;;;;;31.20;18.87;;;8.60;99.90;;;;;;4440856;32;20209;-73
2021/05/01 05:02:37;;;;;;;33.27;19.30;;;8.60;99.90;;;;;;4456581;32;20540;-72
2021/05/01 05:05:05;;;;;;;34.83;19.80;;;8.70;99.90;;;;;;4456801;32;20169;-72
2021/05/01 05:07:32;;;;;;;33.03;20.13;;;8.70;99.90;;;;;;4455426;32;20138;-72
2021/05/01 05:09:58;;;;;;;32.13;19.23;;;8.70;99.90;;;;;;4454359;32;20265;-72
2021/05/01 05:12:25;;;;;;;33.87;20.00;;;8.80;99.90;;;;;;4456392;32;20146;-72
2021/05/01 05:14:51;;;;;;;32.63;19.63;;;8.80;99.90;;;;;;4458057;32;20142;-72
2021/05/01 05:17:19;;;;;;;36.63;20.57;;;8.80;99.90;;;;;;4458020;32;20227;-72
2021/05/01 05:19:46;;;;;;;34.87;20.20;;;8.90;99.90;;;;;;4457773;32;20294;-72
2021/05/01 05:22:13;;;;;;;32.63;19.67;;;8.90;99.90;;;;;;4458479;32;20146;-72
2021/05/01 05:24:40;;;;;;;35.03;20.87;;;8.90;99.90;;;;;;4457956;32;20154;-72
2021/05/01 05:27:07;;;;;;;35.27;20.13;;;8.80;99.90;;;;;;4459513;32;20138;-73
2021/05/01 05:29:35;;;;;;;35.30;19.87;;;8.80;99.90;;;;;;4457837;32;20460;-72
2021/05/01 05:32:04;;;;;;;31.80;19.33;;;8.70;99.90;;;;;;4457840;32;20253;-73
2021/05/01 05:34:34;;;;;;;31.73;19.57;;;8.80;99.90;;;;;;4457922;32;20210;-73
2021/05/01 05:37:00;;;;;;;30.77;19.33;;;8.80;99.90;;;;;;4459336;32;20448;-73
2021/05/01 05:39:27;;;;;;;31.73;18.90;;;8.80;99.90;;;;;;4458841;32;20178;-73
2021/05/01 05:41:54;;;;;;;30.90;19.00;;;9.00;99.90;;;;;;4458994;32;20176;-73
2021/05/01 05:44:20;;;;;;;33.40;19.17;;;9.00;99.90;;;;;;4457809;32;20142;-73
2021/05/01 05:46:47;;;;;;;30.83;18.60;;;9.00;99.90;;;;;;4459238;32;20471;-73
2021/05/01 05:49:14;;;;;;;29.20;17.80;;;9.10;99.90;;;;;;4459171;32;20169;-74
2021/05/01 05:51:41;;;;;;;29.60;18.13;;;9.20;99.90;;;;;;4457550;32;20403;-73
2021/05/01 05:54:07;;;;;;;29.10;17.57;;;9.40;99.90;;;;;;4457507;32;20256;-73
2021/05/01 05:56:34;;;;;;;27.77;17.27;;;9.40;99.90;;;;;;4457514;32;20162;-73
2021/05/01 05:59:01;;;;;;;29.73;17.63;;;9.40;99.90;;;;;;4459251;32;20186;-74
2021/05/01 06:01:31;;;;;;;30.67;18.07;;;9.50;99.90;;;;;;4458865;32;20189;-74
2021/05/01 06:03:59;;;;;;;29.00;18.17;;;9.50;99.90;;;;;;4458037;32;20139;-73
2021/05/01 06:06:30;;;;;;;29.20;18.33;;;9.60;99.90;;;;;;4457381;32;20137;-73
2021/05/01 06:08:57;;;;;;;30.10;18.03;;;9.60;99.90;;;;;;4458391;32;20402;-73
2021/05/01 06:11:24;;;;;;;28.13;17.50;;;9.50;99.90;;;;;;4457284;32;20160;-73
2021/05/01 06:13:51;;;;;;;30.30;17.77;;;9.50;99.90;;;;;;4457533;32;20135;-73
2021/05/01 06:16:21;;;;;;;28.07;17.70;;;9.50;99.90;;;;;;4457013;32;20222;-73
2021/05/01 06:18:51;;;;;;;27.37;17.43;;;9.60;99.90;;;;;;4456693;32;20193;-73
2021/05/01 06:21:18;;;;;;;30.53;18.20;;;9.60;99.90;;;;;;4458855;32;20154;-73
2021/05/01 06:23:46;;;;;;;28.97;17.80;;;9.80;99.90;;;;;;4456983;32;20501;-73
2021/05/01 06:26:12;;;;;;;30.63;18.03;;;9.80;99.90;;;;;;4458607;32;20161;-73
2021/05/01 06:28:38;;;;;;;29.40;17.67;;;9.90;99.90;;;;;;4459067;32;20142;-73
2021/05/01 06:31:07;;;;;;;30.60;18.70;;;9.90;99.90;;;;;;4458118;32;20199;-73
2021/05/01 06:33:38;;;;;;;33.50;18.87;;;10.00;99.90;;;;;;4456919;32;20415;-73
2021/05/01 06:36:06;;;;;;;27.10;17.83;;;10.00;99.90;;;;;;4458436;32;20161;-73
2021/05/01 06:38:34;;;;;;;26.87;17.03;;;9.90;99.90;;;;;;4458502;32;20154;-73
2021/05/01 06:41:06;;;;;;;30.93;18.10;;;9.90;99.90;;;;;;4442237;32;20178;-73
2021/05/01 06:44:03;;;;;;;29.83;18.63;;;10.00;99.90;;;;;;4458219;32;20496;-73
2021/05/01 06:46:35;;;;;;;26.67;16.87;;;10.00;99.90;;;;;;4456859;32;20176;-73
2021/05/01 06:49:06;;;;;;;30.43;17.87;;;10.10;99.90;;;;;;4457330;32;20169;-73
2021/05/01 06:51:37;;;;;;;28.23;16.83;;;10.20;99.90;;;;;;4456303;32;20169;-73
2021/05/01 06:54:08;;;;;;;28.10;17.00;;;10.10;99.90;;;;;;4456398;32;20511;-73
2021/05/01 06:56:38;;;;;;;29.10;17.43;;;10.10;99.90;;;;;;4456481;32;20232;-73
2021/05/01 06:59:07;;;;;;;29.70;17.83;;;10.20;99.90;;;;;;4458079;32;20217;-73
2021/05/01 07:01:34;;;;;;;27.77;16.97;;;10.20;99.90;;;;;;4456517;32;20176;-73
2021/05/01 07:04:03;;;;;;;28.17;17.30;;;10.20;99.90;;;;;;4458081;32;20189;-74
2021/05/01 07:06:31;;;;;;;28.87;17.77;;;10.20;99.90;;;;;;4456509;32;20339;-74
2021/05/01 07:08:59;;;;;;;27.10;17.13;;;10.20;99.90;;;;;;4456399;32;20189;-74
2021/05/01 07:11:27;;;;;;;26.83;16.90;;;10.20;99.90;;;;;;4456454;32;20199;-80
2021/05/01 07:13:54;;;;;;;26.43;17.17;;;10.20;99.90;;;;;;4456409;32;20150;-75
2021/05/01 07:16:21;;;;;;;28.73;17.17;;;10.30;99.90;;;;;;4457923;32;20226;-74
2021/05/01 07:18:48;;;;;;;27.43;16.77;;;10.30;99.90;;;;;;4456699;32;20196;-74
2021/05/01 07:21:17;;;;;;;26.50;16.77;;;10.30;99.90;;;;;;4456200;32;20179;-74
2021/05/01 07:23:43;;;;;;;26.20;16.90;;;10.40;99.90;;;;;;4456235;32;20150;-73
2021/05/01 07:26:14;;;;;;;26.47;17.07;;;10.50;99.90;;;;;;4457586;32;20138;-73
2021/05/01 07:28:44;;;;;;;26.00;16.80;;;10.50;99.90;;;;;;4456614;32;20162;-74
2021/05/01 07:31:19;;;;;;;28.63;16.87;;;10.60;99.90;;;;;;4456520;32;20201;-74
2021/05/01 07:33:50;;;;;;;29.80;17.87;;;10.80;99.90;;;;;;4457600;32;20160;-74
2021/05/01 07:36:39;;;;;;;25.67;16.23;;;11.00;99.90;;;;;;4456621;32;20138;-74
2021/05/01 07:39:11;;;;;;;28.63;16.93;;;11.00;99.90;;;;;;4457112;32;20135;-74
2021/05/01 07:41:43;;;;;;;27.63;17.53;;;11.10;99.90;;;;;;4455717;32;20229;-74
2021/05/01 07:44:11;;;;;;;27.10;16.97;;;11.10;99.90;;;;;;4456847;32;20162;-74
2021/05/01 07:46:39;;;;;;;25.57;16.37;;;11.20;99.90;;;;;;4457469;32;20199;-74
2021/05/01 07:49:08;;;;;;;25.23;16.07;;;11.40;99.90;;;;;;4456616;32;20474;-74
2021/05/01 07:51:39;;;;;;;27.90;16.60;;;11.40;99.90;;;;;;4455727;32;20166;-74
2021/05/01 07:54:12;;;;;;;23.80;15.67;;;11.60;99.90;;;;;;4456192;32;20161;-74
2021/05/01 07:56:39;;;;;;;25.13;15.33;;;11.50;99.90;;;;;;4455941;32;20181;-74
2021/05/01 07:59:06;;;;;;;23.93;15.17;;;11.40;99.90;;;;;;4456538;32;20138;-74
2021/05/01 08:01:32;;;;;;;24.53;15.10;;;11.30;99.90;;;;;;4455667;32;20162;-74
2021/05/01 08:03:59;;;;;;;24.13;15.77;;;11.10;99.90;;;;;;4455675;32;20511;-74
2021/05/01 08:06:27;;;;;;;23.73;14.87;;;11.20;99.90;;;;;;4457210;32;20401;-74
2021/05/01 08:08:55;;;;;;;24.87;15.07;;;11.20;99.90;;;;;;4455571;32;20210;-74
2021/05/01 08:11:23;;;;;;;22.87;15.00;;;11.30;99.90;;;;;;4455585;32;20138;-74
2021/05/01 08:13:50;;;;;;;21.80;13.80;;;11.50;99.90;;;;;;4456996;32;20187;-74
2021/05/01 08:16:16;;;;;;;22.20;14.63;;;11.50;99.90;;;;;;4455403;32;20214;-74
2021/05/01 08:18:43;;;;;;;22.80;14.17;;;11.40;99.90;;;;;;4454889;32;20206;-74
2021/05/01 08:21:10;;;;;;;20.70;13.43;;;11.40;99.90;;;;;;4456905;32;20207;-75
2021/05/01 08:23:36;;;;;;;19.53;13.07;;;11.40;99.90;;;;;;4455279;32;20215;-75
2021/05/01 08:26:05;;;;;;;21.33;13.47;;;11.50;99.90;;;;;;4455390;32;20171;-74
2021/05/01 08:28:32;;;;;;;20.00;12.50;;;11.50;99.90;;;;;;4455208;32;20193;-74
2021/05/01 08:30:58;;;;;;;18.80;12.13;;;11.30;99.90;;;;;;4455326;32;20196;-74
2021/05/01 08:33:25;;;;;;;19.83;11.83;;;11.40;99.90;;;;;;4456569;32;20429;-74
2021/05/01 08:35:53;;;;;;;20.40;12.57;;;11.30;99.90;;;;;;4455182;32;20153;-74
2021/05/01 08:38:23;;;;;;;18.07;12.20;;;11.20;99.90;;;;;;4455304;32;20393;-74
2021/05/01 08:40:50;;;;;;;18.07;11.33;;;11.20;99.90;;;;;;4454629;32;20150;-74
2021/05/01 08:43:17;;;;;;;18.00;11.67;;;11.20;99.90;;;;;;4455924;32;20189;-74
2021/05/01 08:45:46;;;;;;;18.03;11.63;;;11.30;99.90;;;;;;4454444;32;20177;-73
2021/05/01 08:48:15;;;;;;;16.90;11.13;;;11.40;99.90;;;;;;4455152;32;20408;-73
2021/05/01 08:50:50;;;;;;;17.03;11.80;;;11.50;99.90;;;;;;4455197;32;20146;-73
2021/05/01 08:53:16;;;;;;;19.27;12.47;;;11.40;99.90;;;;;;4455346;32;20176;-74
2021/05/01 08:55:43;;;;;;;19.07;12.17;;;11.40;99.90;;;;;;4455804;32;20185;-73
2021/05/01 08:58:10;;;;;;;17.40;12.13;;;11.40;99.90;;;;;;4455185;32;20134;-73
2021/05/01 09:00:43;;;;;;;19.90;11.33;;;11.60;99.90;;;;;;4454854;32;20195;-73
2021/05/01 09:03:12;;;;;;;16.07;10.47;;;11.60;99.90;;;;;;4456553;32;20150;-73
2021/05/01 09:05:40;;;;;;;15.73;11.03;;;11.60;99.90;;;;;;4455105;32;20177;-73
2021/05/01 09:08:09;;;;;;;15.07;10.47;;;11.80;99.90;;;;;;4454723;32;20547;-73
2021/05/01 09:10:47;;;;;;;15.70;10.90;;;11.80;99.90;;;;;;4454715;32;20142;-70
2021/05/01 09:13:31;;;;;;;16.87;10.43;;;12.10;99.90;;;;;;4454856;32;20147;-69
2021/05/01 09:16:02;;;;;;;17.37;10.37;;;12.10;99.90;;;;;;4456528;32;20181;-73
2021/05/01 09:18:48;;;;;;;16.83;10.23;;;12.40;99.90;;;;;;4455051;32;20455;-69
2021/05/01 09:21:20;;;;;;;17.17;9.83;;;12.40;99.90;;;;;;4455641;32;20210;-70
2021/05/01 09:23:46;;;;;;;15.17;9.73;;;12.50;99.90;;;;;;4456016;32;20211;-70
2021/05/01 09:26:13;;;;;;;14.77;10.33;;;12.60;99.90;;;;;;4454736;32;20197;-70
2021/05/01 09:28:40;;;;;;;13.70;9.77;;;12.60;99.90;;;;;;4456397;32;20147;-70
2021/05/01 09:31:11;;;;;;;15.93;9.97;;;12.60;99.90;;;;;;4454684;32;20150;-70
2021/05/01 09:33:40;;;;;;;15.07;9.90;;;12.70;99.90;;;;;;4454363;32;20574;-70
2021/05/01 09:36:16;;;;;;;14.70;9.57;;;12.70;99.90;;;;;;4454289;32;20177;-70
2021/05/01 09:38:48;;;;;;;14.70;9.80;;;12.70;99.90;;;;;;4450645;32;20461;-70
2021/05/01 09:41:14;;;;;;;14.47;9.60;;;12.80;99.90;;;;;;4453870;32;20223;-70
2021/05/01 09:43:55;;;;;;;14.07;10.00;;;12.70;99.90;;;;;;4456118;32;20177;-70
2021/05/01 09:46:22;;;;;;;15.27;10.07;;;12.70;99.90;;;;;;4454640;32;20158;-70
2021/05/01 09:49:07;;;;;;;15.40;10.63;;;12.40;99.90;;;;;;4456127;32;20158;-70
2021/05/01 09:51:53;;;;;;;15.13;9.90;;;12.20;99.90;;;;;;4446304;32;20181;-70
2021/05/01 09:54:26;;;;;;;14.43;9.37;;;12.20;99.90;;;;;;4438511;32;20198;-70
2021/05/01 09:56:55;;;;;;;15.93;10.23;;;12.20;99.90;;;;;;4439057;32;20146;-70
2021/05/01 09:59:33;;;;;;;17.00;10.10;;;12.20;99.90;;;;;;4441035;32;20396;-70
2021/05/01 10:02:00;;;;;;;13.97;9.23;;;12.00;99.90;;;;;;4457236;32;20158;-70
2021/05/01 10:04:28;;;;;;;14.80;9.70;;;12.10;99.90;;;;;;4457092;32;20161;-70
2021/05/01 10:07:11;;;;;;;15.20;10.03;;;12.00;99.90;;;;;;4458808;32;20145;-69
2021/05/01 10:09:41;;;;;;;15.20;9.47;;;12.20;99.90;;;;;;4457577;32;20177;-70
2021/05/01 10:12:07;;;;;;;15.80;10.33;;;12.30;99.90;;;;;;4450774;32;20566;-70
2021/05/01 10:14:51;;;;;;;15.43;9.83;;;12.10;99.90;;;;;;4454871;32;20150;-70
2021/05/01 10:17:28;;;;;;;13.60;9.40;;;12.20;99.90;;;;;;4458967;32;20197;-70
2021/05/01 10:20:00;;;;;;;14.83;9.30;;;12.30;99.90;;;;;;4458616;32;20138;-71
2021/05/01 10:22:43;;;;;;;13.57;9.27;;;12.30;99.90;;;;;;4458524;32;20195;-70
2021/05/01 10:25:17;;;;;;;13.47;9.10;;;12.40;99.90;;;;;;4457115;32;20168;-70
2021/05/01 10:27:53;;;;;;;15.00;10.00;;;12.10;99.90;;;;;;4459055;32;20168;-70
2021/05/01 10:30:36;;;;;;;16.97;10.40;;;12.10;99.90;;;;;;4458865;32;20181;-69
2021/05/01 10:33:24;;;;;;;16.00;10.73;;;12.00;99.90;;;;;;4457271;32;20169;-70
2021/05/01 10:36:14;;;;;;;15.27;10.70;;;11.90;99.90;;;;;;4456982;32;20169;-70
2021/05/01 10:38:41;;;;;;;14.00;10.23;;;11.80;99.90;;;;;;4456797;32;20146;-70
2021/05/01 10:41:20;;;;;;;15.87;10.77;;;11.70;99.90;;;;;;4456839;32;20235;-69
2021/05/01 10:43:52;;;;;;;15.40;10.83;;;11.60;99.90;;;;;;4457379;32;20150;-69
2021/05/01 10:46:24;;;;;;;15.03;10.57;;;11.60;99.90;;;;;;4442768;32;20190;-69
2021/05/01 10:48:54;;;;;;;17.40;11.33;;;11.60;99.90;;;;;;4458261;32;20213;-69
2021/05/01 10:51:24;;;;;;;15.90;10.30;;;11.70;99.90;;;;;;4458206;32;20192;-73
2021/05/01 10:54:08;;;;;;;18.00;11.87;;;11.60;99.90;;;;;;4456124;32;20162;-70
2021/05/01 10:56:36;;;;;;;16.33;11.30;;;11.70;99.90;;;;;;4458147;32;20194;-69
2021/05/01 10:59:20;;;;;;;21.30;13.67;;;11.60;99.90;;;;;;4456921;32;20149;-69
2021/05/01 11:01:48;;;;;;;16.73;11.23;;;11.60;99.90;;;;;;4458131;32;20372;-70
2021/05/01 11:04:17;;;;;;;16.73;11.47;;;11.60;99.90;;;;;;4457269;32;20138;-70
2021/05/01 11:06:50;;;;;;;27.97;16.97;;;11.70;99.90;;;;;;4456587;32;20150;-69
2021/05/01 11:09:38;;;;;;;19.07;13.07;;;12.00;99.90;;;;;;4456831;32;20418;-70
2021/05/01 11:12:08;;;;;;;17.57;11.97;;;12.00;99.90;;;;;;4458037;32;20198;-70
2021/05/01 11:14:41;;;;;;;16.70;12.07;;;12.10;99.90;;;;;;4457791;32;20191;-69
2021/05/01 11:17:42;;;;;;;18.73;11.67;;;12.20;99.90;;;;;;4456576;32;20190;-70
2021/05/01 11:20:10;;;;;;;16.70;10.90;;;12.10;99.90;;;;;;4436373;32;20184;-70
2021/05/01 11:22:39;;;;;;;19.20;12.60;;;12.00;99.90;;;;;;4456083;32;20150;-69
2021/05/01 11:25:11;;;;;;;20.73;14.37;;;12.10;99.90;;;;;;4456753;32;20190;-70
2021/05/01 11:27:39;;;;;;;18.40;12.00;;;12.30;99.90;;;;;;4453917;32;20184;-69
2021/05/01 11:30:08;;;;;;;16.73;11.10;;;12.20;99.90;;;;;;4457907;32;20137;-70
2021/05/01 11:32:36;;;;;;;18.93;12.33;;;12.10;99.90;;;;;;4456142;32;20150;-69
2021/05/01 11:35:11;;;;;;;16.50;11.40;;;12.30;99.90;;;;;;4455686;32;20136;-70
2021/05/01 11:37:42;;;;;;;15.87;11.03;;;12.00;99.90;;;;;;4442523;32;20168;-70
2021/05/01 11:40:11;;;;;;;14.97;10.53;;;12.10;99.90;;;;;;4457860;32;20223;-70
2021/05/01 11:42:39;;;;;;;17.07;10.67;;;12.20;99.90;;;;;;4455891;32;20200;-70
2021/05/01 11:45:14;;;;;;;15.07;10.07;;;12.40;99.90;;;;;;4456065;32;20154;-70
2021/05/01 11:47:48;;;;;;;18.20;11.03;;;12.40;99.90;;;;;;4456259;32;20138;-70
2021/05/01 11:50:15;;;;;;;15.30;10.03;;;12.30;99.90;;;;;;4457162;32;20142;-70
2021/05/01 11:53:36;;;;;;;15.30;10.53;;;12.10;99.90;;;;;;4456746;32;20395;-70
2021/05/01 11:56:25;;;;;;;13.27;9.63;;;12.20;99.90;;;;;;4392825;32;20171;-70
2021/05/01 11:59:07;;;;;;;14.83;9.83;;;12.10;99.90;;;;;;4391735;32;20159;-70
2021/05/01 12:01:41;;;;;;;13.70;9.57;;;11.90;99.90;;;;;;4392521;32;20234;-69
2021/05/01 12:04:09;;;;;;;14.23;10.27;;;11.90;99.90;;;;;;4393309;32;20214;-69
2021/05/01 12:06:43;;;;;;;14.90;9.80;;;11.90;99.90;;;;;;4393706;32;20189;-70
2021/05/01 12:09:18;;;;;;;15.20;9.60;;;12.00;99.90;;;;;;4393471;32;20178;-70
2021/05/01 12:11:50;;;;;;;17.63;10.23;;;12.00;99.90;;;;;;4392661;32;20155;-70
2021/05/01 12:14:18;;;;;;;13.97;9.53;;;12.00;99.90;;;;;;4394099;32;20160;-70
2021/05/01 12:16:45;;;;;;;13.90;10.30;;;12.10;99.90;;;;;;4392277;32;20174;-70
2021/05/01 12:19:22;;;;;;;13.33;9.40;;;12.10;99.90;;;;;;4393941;32;20151;-70
2021/05/01 12:21:50;;;;;;;23.97;10.40;;;12.10;99.90;;;;;;4393423;32;20209;-70
2021/05/01 12:24:32;;;;;;;14.47;10.13;;;11.90;99.90;;;;;;4394045;32;20159;-69
2021/05/01 12:26:59;;;;;;;14.57;9.77;;;11.90;99.90;;;;;;4393721;32;20178;-70
2021/05/01 12:29:32;;;;;;;14.87;10.23;;;12.00;99.90;;;;;;4408178;32;20206;-70
2021/05/01 12:32:03;;;;;;;13.90;9.33;;;12.10;99.90;;;;;;4455684;32;20177;-69
2021/05/01 12:34:46;;;;;;;13.90;9.40;;;12.00;99.90;;;;;;4455602;32;20139;-70
2021/05/01 12:37:14;;;;;;;14.97;9.80;;;11.90;99.90;;;;;;4455358;32;20464;-70
2021/05/01 12:39:43;;;;;;;16.10;10.30;;;11.60;99.90;;;;;;4456427;32;20199;-69
2021/05/01 12:42:25;;;;;;;15.93;10.30;;;11.60;99.90;;;;;;4455739;32;20153;-69
2021/05/01 12:44:52;;;;;;;13.63;9.77;;;11.60;99.90;;;;;;4456745;32;20173;-69